createdAt,value
2017-07-30T00:01:04.654Z,11.30
2017-07-30T00:03:31.110Z,16.40
2017-07-30T00:05:57.601Z,15.80
2017-07-30T00:08:24.035Z,14.00
2017-07-30T00:10:50.828Z,22.73
2017-07-30T00:13:17.181Z,11.93
2017-07-30T00:15:43.577Z,14.30
2017-07-30T00:18:10.082Z,14.73
2017-07-30T00:20:36.481Z,23.53
2017-07-30T00:23:02.923Z,11.83
2017-07-30T00:25:29.345Z,9.53
2017-07-30T00:27:55.837Z,12.30
2017-07-30T00:30:22.272Z,17.63
2017-07-30T00:32:48.726Z,12.47
2017-07-30T00:35:15.217Z,12.50
2017-07-30T00:37:41.634Z,11.07
2017-07-30T00:40:07.970Z,20.13
2017-07-30T00:42:34.425Z,15.00
2017-07-30T00:45:01.766Z,13.73
2017-07-30T00:47:28.281Z,12.60
2017-07-30T00:49:54.699Z,11.83
2017-07-30T00:52:21.133Z,16.90
2017-07-30T00:54:47.506Z,14.40
2017-07-30T00:57:13.967Z,9.63
2017-07-30T00:59:40.341Z,15.30
2017-07-30T01:02:06.719Z,14.00
2017-07-30T01:04:33.076Z,13.97
2017-07-30T01:07:00.164Z,14.37
2017-07-30T01:09:26.505Z,12.30
2017-07-30T01:11:52.875Z,11.97
2017-07-30T01:14:19.265Z,11.80
2017-07-30T01:16:45.728Z,13.27
2017-07-30T01:19:12.084Z,17.13
2017-07-30T01:21:38.477Z,10.83
2017-07-30T01:24:04.904Z,11.50
2017-07-30T01:26:31.291Z,13.73
2017-07-30T01:28:57.737Z,16.73
2017-07-30T01:31:24.141Z,11.30
2017-07-30T01:33:50.545Z,11.80
2017-07-30T01:36:17.702Z,11.63
2017-07-30T01:38:44.825Z,10.00
2017-07-30T01:41:11.217Z,16.73
2017-07-30T01:43:37.638Z,13.20
2017-07-30T01:46:03.994Z,13.87
2017-07-30T01:48:30.566Z,15.50
2017-07-30T01:50:56.982Z,16.90
2017-07-30T01:53:24.144Z,19.90
2017-07-30T01:55:50.487Z,16.20
2017-07-30T01:58:16.912Z,15.60
2017-07-30T02:00:50.913Z,20.47
2017-07-30T02:03:18.014Z,18.13
2017-07-30T02:05:44.383Z,15.23
2017-07-30T02:08:10.748Z,11.00
2017-07-30T02:10:37.193Z,9.93
2017-07-30T02:13:03.577Z,13.40
2017-07-30T02:15:30.698Z,12.97
2017-07-30T02:17:57.069Z,12.97
2017-07-30T02:20:23.464Z,11.27
2017-07-30T02:22:49.819Z,17.10
2017-07-30T02:25:16.227Z,13.23
2017-07-30T02:27:42.621Z,13.70
2017-07-30T02:30:08.992Z,12.67
2017-07-30T02:32:35.649Z,10.57
2017-07-30T02:35:03.068Z,13.03
2017-07-30T02:37:29.466Z,18.53
2017-07-30T02:39:55.868Z,12.97
2017-07-30T02:42:22.988Z,12.47
2017-07-30T02:44:49.355Z,15.60
2017-07-30T02:47:15.710Z,13.53
2017-07-30T02:49:42.152Z,14.93
2017-07-30T02:52:08.520Z,12.13
2017-07-30T02:54:35.646Z,14.90
2017-07-30T02:57:02.017Z,13.00
2017-07-30T02:59:29.103Z,10.47
2017-07-30T03:01:55.459Z,13.30
2017-07-30T03:04:21.867Z,12.80
2017-07-30T03:06:48.257Z,13.50
2017-07-30T03:09:14.645Z,15.37
2017-07-30T03:11:41.005Z,13.40
2017-07-30T03:14:08.115Z,14.90
2017-07-30T03:16:34.527Z,10.73
2017-07-30T03:19:00.926Z,15.90
2017-07-30T03:21:27.297Z,12.00
2017-07-30T03:23:53.736Z,12.27
2017-07-30T03:26:20.089Z,12.40
2017-07-30T03:28:46.500Z,12.13
2017-07-30T03:31:12.913Z,12.57
2017-07-30T03:33:39.268Z,22.73
2017-07-30T03:36:05.646Z,13.50
2017-07-30T03:38:32.008Z,12.47
2017-07-30T03:40:58.413Z,14.17
2017-07-30T03:43:25.102Z,11.93
2017-07-30T03:45:51.472Z,12.70
2017-07-30T03:48:17.897Z,12.37
2017-07-30T03:50:44.297Z,10.13
2017-07-30T03:53:10.659Z,14.03
2017-07-30T03:55:37.109Z,22.03
2017-07-30T03:58:03.475Z,11.27
2017-07-30T04:00:29.884Z,14.23
2017-07-30T04:02:56.291Z,10.10
2017-07-30T04:05:22.650Z,12.57
2017-07-30T04:07:49.037Z,13.40
2017-07-30T04:10:15.431Z,13.00
2017-07-30T04:12:41.835Z,17.70
2017-07-30T04:15:08.265Z,16.63
2017-07-30T04:17:34.644Z,15.47
2017-07-30T04:20:01.765Z,17.87
2017-07-30T04:22:28.157Z,11.03
2017-07-30T04:24:54.544Z,10.20
2017-07-30T04:27:20.940Z,8.90
2017-07-30T04:29:47.384Z,13.43
2017-07-30T04:32:13.737Z,12.33
2017-07-30T04:34:40.137Z,12.30
2017-07-30T04:37:06.535Z,15.67
2017-07-30T04:39:32.949Z,18.17
2017-07-30T04:41:59.347Z,11.87
2017-07-30T04:44:25.728Z,11.53
2017-07-30T04:46:52.154Z,15.53
2017-07-30T04:49:18.587Z,10.83
2017-07-30T04:51:45.002Z,10.47
2017-07-30T04:54:11.433Z,11.63
2017-07-30T04:56:37.905Z,10.97
2017-07-30T04:59:04.325Z,10.83
2017-07-30T05:01:30.720Z,10.37
2017-07-30T05:03:57.832Z,13.80
2017-07-30T05:06:24.204Z,9.87
2017-07-30T05:08:50.628Z,7.40
2017-07-30T05:11:17.063Z,8.60
2017-07-30T05:13:43.500Z,7.67
2017-07-30T05:16:09.834Z,12.20
2017-07-30T05:18:36.237Z,11.00
2017-07-30T05:21:02.599Z,8.83
2017-07-30T05:23:29.255Z,8.40
2017-07-30T05:25:55.666Z,10.17
2017-07-30T05:28:22.505Z,13.93
2017-07-30T05:30:48.863Z,12.40
2017-07-30T05:33:15.285Z,10.23
2017-07-30T05:35:41.714Z,11.87
2017-07-30T05:38:08.101Z,9.83
2017-07-30T05:40:35.223Z,11.87
2017-07-30T05:43:01.804Z,12.23
2017-07-30T05:45:28.167Z,8.10
2017-07-30T05:47:54.531Z,9.63
2017-07-30T05:50:21.030Z,11.47
2017-07-30T05:52:47.408Z,10.47
2017-07-30T05:55:14.551Z,9.60
2017-07-30T05:57:41.680Z,8.93
2017-07-30T06:00:08.534Z,17.33
2017-07-30T06:02:35.633Z,10.43
2017-07-30T06:05:01.998Z,9.30
2017-07-30T06:07:28.375Z,10.33
2017-07-30T06:09:54.769Z,8.30
2017-07-30T06:12:21.359Z,8.80
2017-07-30T06:14:47.726Z,11.60
2017-07-30T06:17:14.109Z,8.90
2017-07-30T06:19:40.488Z,12.87
2017-07-30T06:22:06.858Z,7.50
2017-07-30T06:24:33.249Z,12.10
2017-07-30T06:26:59.621Z,7.23
2017-07-30T06:29:26.008Z,8.87
2017-07-30T06:31:52.372Z,13.23
2017-07-30T06:34:18.798Z,9.03
2017-07-30T06:36:45.190Z,11.13
2017-07-30T06:39:11.551Z,22.20
2017-07-30T06:41:38.706Z,11.60
2017-07-30T06:44:05.144Z,14.87
2017-07-30T06:46:31.528Z,12.50
2017-07-30T06:48:57.906Z,10.23
2017-07-30T06:51:24.307Z,11.53
2017-07-30T06:53:50.705Z,17.70
2017-07-30T06:56:17.095Z,15.20
2017-07-30T06:58:43.466Z,10.20
2017-07-30T07:01:09.907Z,10.40
2017-07-30T07:03:36.298Z,11.40
2017-07-30T07:06:02.682Z,13.40
2017-07-30T07:08:29.881Z,11.70
2017-07-30T07:10:56.388Z,9.47
2017-07-30T07:13:22.819Z,11.07
2017-07-30T07:15:50.357Z,9.17
2017-07-30T07:18:16.868Z,9.23
2017-07-30T07:20:43.297Z,11.97
2017-07-30T07:23:09.756Z,10.23
2017-07-30T07:25:36.965Z,10.60
2017-07-30T07:28:03.387Z,7.77
2017-07-30T07:30:29.834Z,9.70
2017-07-30T07:32:56.261Z,8.30
2017-07-30T07:35:22.655Z,5.67
2017-07-30T07:37:49.043Z,4.80
2017-07-30T07:40:16.226Z,5.17
2017-07-30T07:42:42.587Z,4.70
2017-07-30T07:45:09.117Z,3.97
2017-07-30T07:47:35.514Z,4.60
2017-07-30T07:50:01.968Z,3.93
2017-07-30T07:52:28.390Z,5.00
2017-07-30T07:54:54.771Z,3.70
2017-07-30T07:57:21.211Z,5.40
2017-07-30T07:59:47.584Z,6.30
2017-07-30T08:02:14.094Z,9.17
2017-07-30T08:04:41.280Z,3.23
2017-07-30T08:07:07.693Z,2.80
2017-07-30T08:09:34.070Z,5.13
2017-07-30T08:12:00.463Z,3.77
2017-07-30T08:14:27.062Z,4.00
2017-07-30T08:16:53.858Z,5.97
2017-07-30T08:19:20.258Z,4.40
2017-07-30T08:21:46.656Z,2.53
2017-07-30T08:24:13.795Z,6.83
2017-07-30T08:26:40.238Z,3.40
2017-07-30T08:29:06.643Z,6.83
2017-07-30T08:31:33.028Z,7.97
2017-07-30T08:33:59.368Z,4.60
2017-07-30T08:36:25.776Z,3.27
2017-07-30T08:38:52.144Z,8.40
2017-07-30T08:41:18.497Z,4.00
2017-07-30T08:43:44.910Z,6.10
2017-07-30T08:46:11.302Z,4.47
2017-07-30T08:48:37.816Z,8.13
2017-07-30T08:51:04.216Z,6.10
2017-07-30T08:53:30.606Z,4.47
2017-07-30T08:55:57.026Z,6.80
2017-07-30T08:58:23.463Z,3.57
2017-07-30T09:00:49.878Z,3.67
2017-07-30T09:03:16.304Z,3.47
2017-07-30T09:05:43.472Z,7.07
2017-07-30T09:08:09.904Z,5.43
2017-07-30T09:10:36.420Z,4.63
2017-07-30T09:13:02.971Z,5.47
2017-07-30T09:15:29.437Z,3.53
2017-07-30T09:17:55.998Z,5.40
2017-07-30T09:20:23.251Z,8.10
2017-07-30T09:22:49.711Z,5.47
2017-07-30T09:25:16.182Z,4.27
2017-07-30T09:27:42.928Z,3.07
2017-07-30T09:30:09.447Z,6.90
2017-07-30T09:32:36.064Z,4.37
2017-07-30T09:35:02.672Z,5.10
2017-07-30T09:37:29.204Z,3.80
2017-07-30T09:39:55.714Z,6.63
2017-07-30T09:42:22.254Z,5.43
2017-07-30T09:44:48.795Z,3.10
2017-07-30T09:47:15.297Z,2.70
2017-07-30T09:49:42.986Z,3.27
2017-07-30T09:52:10.174Z,2.90
2017-07-30T09:54:36.663Z,4.63
2017-07-30T09:57:03.850Z,4.20
2017-07-30T09:59:30.302Z,3.57
2017-07-30T10:01:56.770Z,2.93
2017-07-30T10:04:23.219Z,2.87
2017-07-30T10:06:50.436Z,3.07
2017-07-30T10:09:17.668Z,4.67
2017-07-30T10:11:44.103Z,8.53
2017-07-30T10:14:10.546Z,2.77
2017-07-30T10:16:36.997Z,4.60
2017-07-30T10:19:03.432Z,3.00
2017-07-30T10:21:30.551Z,3.93
2017-07-30T10:23:56.977Z,3.43
2017-07-30T10:26:23.384Z,3.40
2017-07-30T10:28:49.959Z,2.90
2017-07-30T10:31:18.897Z,2.60
2017-07-30T10:33:49.135Z,2.97
2017-07-30T10:36:15.523Z,2.93
2017-07-30T10:38:41.900Z,2.53
2017-07-30T10:41:08.302Z,3.10
2017-07-30T10:43:34.713Z,2.80
2017-07-30T10:46:01.595Z,2.60
2017-07-30T10:48:28.032Z,2.60
2017-07-30T10:50:54.535Z,7.03
2017-07-30T10:53:20.966Z,2.43
2017-07-30T10:55:48.185Z,5.13
2017-07-30T10:58:14.647Z,7.23
2017-07-30T11:00:41.867Z,2.57
2017-07-30T11:03:08.272Z,3.60
2017-07-30T11:05:34.660Z,1.60
2017-07-30T11:08:01.788Z,1.77
2017-07-30T11:10:28.177Z,2.20
2017-07-30T11:12:54.540Z,1.83
2017-07-30T11:15:20.944Z,3.23
2017-07-30T11:17:47.424Z,1.53
2017-07-30T11:20:13.821Z,7.13
2017-07-30T11:22:40.217Z,4.23
2017-07-30T11:25:06.611Z,2.80
2017-07-30T11:27:33.053Z,2.23
2017-07-30T11:30:00.212Z,3.23
2017-07-30T11:32:26.594Z,1.90
2017-07-30T11:34:53.020Z,1.40
2017-07-30T11:37:19.426Z,1.93
2017-07-30T11:39:45.802Z,1.90
2017-07-30T11:42:19.198Z,1.70
2017-07-30T11:44:46.341Z,1.53
2017-07-30T11:47:12.729Z,2.00
2017-07-30T11:49:39.106Z,6.23
2017-07-30T11:52:05.490Z,1.43
2017-07-30T11:54:32.188Z,1.33
2017-07-30T11:56:58.627Z,2.00
2017-07-30T11:59:25.766Z,3.57
2017-07-30T12:01:52.228Z,1.47
2017-07-30T12:04:18.618Z,1.80
2017-07-30T12:06:45.013Z,1.73
2017-07-30T12:09:11.396Z,2.80
2017-07-30T12:11:38.457Z,2.23
2017-07-30T12:14:04.848Z,2.70
2017-07-30T12:16:32.003Z,4.37
2017-07-30T12:18:59.155Z,1.77
2017-07-30T12:21:25.586Z,1.40
2017-07-30T12:23:52.736Z,1.53
2017-07-30T12:26:19.116Z,1.47
2017-07-30T12:28:45.562Z,1.33
2017-07-30T12:31:11.978Z,1.83
2017-07-30T12:33:38.446Z,1.30
2017-07-30T12:36:05.266Z,2.13
2017-07-30T12:38:31.634Z,2.40
2017-07-30T12:40:58.801Z,1.30
2017-07-30T12:43:25.929Z,1.10
2017-07-30T12:45:53.104Z,1.40
2017-07-30T12:48:19.505Z,5.33
2017-07-30T12:50:52.940Z,1.33
2017-07-30T12:53:19.342Z,1.43
2017-07-30T12:55:45.758Z,2.53
2017-07-30T12:58:12.127Z,1.60
2017-07-30T13:00:38.594Z,2.87
2017-07-30T13:03:05.002Z,4.83
2017-07-30T13:05:31.445Z,1.50
2017-07-30T13:07:57.808Z,1.67
2017-07-30T13:10:24.181Z,2.40
2017-07-30T13:12:50.580Z,4.80
2017-07-30T13:15:17.697Z,1.43
2017-07-30T13:17:44.068Z,1.17
2017-07-30T13:20:11.184Z,1.17
2017-07-30T13:22:37.526Z,1.33
2017-07-30T13:25:03.928Z,1.20
2017-07-30T13:27:30.374Z,1.13
2017-07-30T13:29:56.762Z,1.50
2017-07-30T13:32:23.182Z,2.03
2017-07-30T13:34:49.550Z,1.70
2017-07-30T13:37:15.914Z,1.10
2017-07-30T13:39:42.322Z,4.10
2017-07-30T13:42:08.725Z,1.37
2017-07-30T13:44:35.118Z,1.03
2017-07-30T13:47:02.237Z,1.03
2017-07-30T13:49:28.587Z,0.70
2017-07-30T13:51:55.722Z,0.70
2017-07-30T13:54:22.175Z,1.17
2017-07-30T13:56:48.561Z,1.57
2017-07-30T13:59:14.949Z,1.17
2017-07-30T14:01:42.185Z,1.30
2017-07-30T14:04:09.320Z,1.47
2017-07-30T14:06:35.749Z,2.00
2017-07-30T14:09:02.220Z,0.90
2017-07-30T14:11:28.671Z,1.33
2017-07-30T14:13:55.067Z,0.90
2017-07-30T14:16:21.443Z,0.70
2017-07-30T14:18:47.835Z,2.00
2017-07-30T14:21:14.204Z,2.10
2017-07-30T14:23:40.595Z,0.83
2017-07-30T14:26:07.007Z,1.30
2017-07-30T14:28:34.163Z,0.50
2017-07-30T14:31:01.299Z,0.80
2017-07-30T14:33:28.484Z,0.90
2017-07-30T14:35:54.889Z,0.80
2017-07-30T14:38:22.008Z,1.27
2017-07-30T14:40:48.445Z,0.97
2017-07-30T14:43:14.869Z,0.87
2017-07-30T14:45:41.265Z,1.50
2017-07-30T14:48:07.651Z,0.60
2017-07-30T14:50:34.038Z,0.90
2017-07-30T14:53:00.457Z,0.80
2017-07-30T14:55:26.857Z,1.17
2017-07-30T14:57:53.258Z,1.10
2017-07-30T15:00:20.405Z,0.90
2017-07-30T15:02:46.915Z,1.90
2017-07-30T15:05:13.330Z,1.67
2017-07-30T15:07:39.749Z,0.87
2017-07-30T15:10:06.086Z,1.07
2017-07-30T15:12:32.457Z,1.00
2017-07-30T15:14:59.606Z,1.20
2017-07-30T15:17:26.047Z,0.87
2017-07-30T15:19:52.384Z,0.80
2017-07-30T15:22:19.512Z,1.00
2017-07-30T15:24:45.910Z,0.90
2017-07-30T15:27:12.598Z,1.63
2017-07-30T15:29:38.968Z,2.00
2017-07-30T15:32:05.377Z,1.10
2017-07-30T15:34:31.776Z,0.80
2017-07-30T15:36:58.174Z,0.90
2017-07-30T15:39:24.580Z,7.67
2017-07-30T15:41:50.944Z,1.20
2017-07-30T15:44:17.358Z,1.20
2017-07-30T15:46:43.729Z,2.93
2017-07-30T15:49:10.148Z,1.60
2017-07-30T15:51:36.494Z,3.77
2017-07-30T15:54:02.878Z,2.83
2017-07-30T15:56:29.226Z,1.60
2017-07-30T15:58:55.633Z,1.37
2017-07-30T16:01:22.013Z,1.23
2017-07-30T16:03:48.403Z,1.40
2017-07-30T16:06:14.829Z,1.77
2017-07-30T16:08:41.518Z,2.60
2017-07-30T16:11:07.904Z,2.17
2017-07-30T16:13:34.243Z,3.07
2017-07-30T16:16:00.631Z,1.93
2017-07-30T16:18:26.990Z,1.37
2017-07-30T16:20:53.373Z,2.73
2017-07-30T16:23:20.536Z,2.00
2017-07-30T16:25:46.904Z,1.87
2017-07-30T16:28:13.267Z,1.87
2017-07-30T16:30:40.441Z,1.63
2017-07-30T16:33:06.804Z,1.73
2017-07-30T16:35:33.183Z,2.70
2017-07-30T16:38:00.360Z,2.57
2017-07-30T16:40:26.760Z,1.60
2017-07-30T16:42:53.134Z,1.50
2017-07-30T16:45:19.533Z,2.20
2017-07-30T16:47:45.902Z,1.30
2017-07-30T16:50:12.331Z,2.83
2017-07-30T16:52:39.547Z,3.20
2017-07-30T16:55:05.942Z,2.47
2017-07-30T16:57:32.449Z,1.90
2017-07-30T16:59:59.124Z,1.63
2017-07-30T17:02:25.696Z,2.80
2017-07-30T17:04:52.124Z,2.30
2017-07-30T17:07:18.476Z,4.33
2017-07-30T17:09:45.731Z,1.87
2017-07-30T17:12:12.511Z,3.30
2017-07-30T17:14:38.959Z,2.00
2017-07-30T17:17:06.141Z,2.20
2017-07-30T17:19:32.532Z,31.50
2017-07-30T17:21:58.991Z,35.83
2017-07-30T17:24:25.391Z,26.80
2017-07-30T17:26:51.984Z,27.40
2017-07-30T17:29:18.638Z,9.53
2017-07-30T17:31:45.133Z,9.80
2017-07-30T17:34:11.668Z,7.90
2017-07-30T17:36:38.351Z,8.13
2017-07-30T17:39:04.843Z,7.93
2017-07-30T17:41:31.515Z,3.20
2017-07-30T17:43:58.666Z,7.93
2017-07-30T17:46:25.094Z,4.30
2017-07-30T17:48:52.283Z,3.20
2017-07-30T17:51:18.965Z,2.00
2017-07-30T17:53:45.469Z,3.53
2017-07-30T17:56:11.915Z,4.30
2017-07-30T17:58:38.349Z,2.70
2017-07-30T18:01:04.686Z,2.80
2017-07-30T18:03:31.144Z,3.00
2017-07-30T18:05:57.596Z,3.53
2017-07-30T18:08:24.040Z,2.50
2017-07-30T18:10:50.464Z,2.20
2017-07-30T18:13:17.581Z,2.40
2017-07-30T18:15:44.125Z,2.37
2017-07-30T18:18:10.618Z,2.40
2017-07-30T18:20:37.691Z,3.67
2017-07-30T18:23:04.179Z,2.60
2017-07-30T18:25:30.643Z,2.80
2017-07-30T18:27:57.124Z,6.23
2017-07-30T18:30:23.531Z,2.33
2017-07-30T18:32:49.950Z,4.03
2017-07-30T18:35:16.440Z,2.67
2017-07-30T18:37:43.425Z,2.13
2017-07-30T18:40:10.824Z,3.50
2017-07-30T18:42:37.332Z,6.90
2017-07-30T18:45:03.888Z,6.17
2017-07-30T18:47:30.332Z,6.17
2017-07-30T18:49:57.551Z,8.53
2017-07-30T18:52:25.546Z,6.23
2017-07-30T18:54:52.037Z,2.97
2017-07-30T18:57:18.523Z,4.80
2017-07-30T18:59:45.036Z,9.40
2017-07-30T19:02:11.502Z,8.37
2017-07-30T19:04:37.940Z,4.30
2017-07-30T19:07:08.545Z,5.07
2017-07-30T19:09:35.030Z,8.67
2017-07-30T19:12:01.541Z,4.20
2017-07-30T19:14:27.955Z,6.07
2017-07-30T19:16:54.438Z,8.07
2017-07-30T19:19:21.678Z,7.87
2017-07-30T19:21:48.929Z,8.40
2017-07-30T19:24:15.324Z,7.70
2017-07-30T19:26:41.818Z,13.60
2017-07-30T19:29:08.486Z,11.50
2017-07-30T19:31:35.016Z,7.80
2017-07-30T19:34:01.466Z,9.43
2017-07-30T19:36:27.927Z,9.43
2017-07-30T19:38:54.385Z,9.27
2017-07-30T19:41:20.808Z,7.20
2017-07-30T19:43:47.309Z,12.27
2017-07-30T19:46:14.483Z,7.93
2017-07-30T19:48:40.960Z,15.50
2017-07-30T19:51:07.442Z,5.57
2017-07-30T19:53:33.935Z,11.80
2017-07-30T19:56:00.436Z,9.60
2017-07-30T19:58:26.880Z,8.37
2017-07-30T20:00:53.352Z,10.83
2017-07-30T20:03:19.998Z,11.10
2017-07-30T20:05:46.513Z,8.67
2017-07-30T20:08:13.092Z,11.50
2017-07-30T20:10:39.735Z,7.40
2017-07-30T20:13:06.741Z,8.30
2017-07-30T20:18:09.460Z,9.30
2017-07-30T20:20:35.949Z,11.37
2017-07-30T20:23:02.398Z,12.30
2017-07-30T20:25:29.005Z,10.13
2017-07-30T20:27:55.490Z,9.10
2017-07-30T20:30:22.405Z,8.37
2017-07-30T20:32:48.954Z,13.70
2017-07-30T20:35:15.417Z,13.67
2017-07-30T20:37:41.930Z,9.90
2017-07-30T20:40:08.390Z,4.80
2017-07-30T20:42:34.812Z,6.93
2017-07-30T20:45:01.565Z,7.13
2017-07-30T20:47:29.095Z,7.87
2017-07-30T20:50:02.691Z,6.43
2017-07-30T20:52:30.132Z,6.70
2017-07-30T20:54:57.291Z,6.40
2017-07-30T20:57:23.764Z,10.03
2017-07-30T20:59:50.164Z,6.03
2017-07-30T21:02:16.550Z,9.90
2017-07-30T21:04:43.162Z,6.10
2017-07-30T21:07:10.397Z,4.60
2017-07-30T21:09:37.107Z,4.60
2017-07-30T21:12:03.591Z,7.90
2017-07-30T21:14:30.073Z,4.30
2017-07-30T21:16:56.551Z,5.47
2017-07-30T21:19:23.010Z,3.93
2017-07-30T21:21:49.563Z,4.63
2017-07-30T21:24:15.993Z,7.37
2017-07-30T21:26:43.439Z,11.23
2017-07-30T21:29:09.816Z,5.10
2017-07-30T21:31:36.380Z,6.07
2017-07-30T21:34:02.865Z,6.73
2017-07-30T21:36:31.302Z,3.67
2017-07-30T21:38:57.616Z,5.97
2017-07-30T21:41:24.015Z,7.50
2017-07-30T21:43:50.419Z,3.47
2017-07-30T21:46:17.542Z,6.87
2017-07-30T21:48:43.902Z,5.07
2017-07-30T21:51:11.019Z,5.67
2017-07-30T21:53:37.730Z,15.50
2017-07-30T21:56:04.123Z,3.40
2017-07-30T21:58:30.532Z,6.93
2017-07-30T22:00:56.884Z,5.07
2017-07-30T22:03:23.240Z,7.23
2017-07-30T22:05:49.638Z,11.73
2017-07-30T22:08:16.733Z,9.10
2017-07-30T22:10:43.148Z,4.60
2017-07-30T22:13:09.539Z,8.67
2017-07-30T22:15:36.679Z,4.97
2017-07-30T22:18:03.050Z,8.47
2017-07-30T22:20:29.754Z,8.00
2017-07-30T22:22:56.088Z,4.03
2017-07-30T22:25:23.195Z,7.53
2017-07-30T22:27:49.592Z,14.47
2017-07-30T22:30:16.045Z,3.33
2017-07-30T22:32:42.423Z,26.13
2017-07-30T22:35:09.528Z,4.03
2017-07-30T22:37:35.916Z,5.70
2017-07-30T22:40:03.067Z,6.33
2017-07-30T22:42:29.422Z,5.87
2017-07-30T22:44:55.848Z,8.70
2017-07-30T22:47:22.552Z,7.33
2017-07-30T22:49:49.677Z,9.57
2017-07-30T22:52:16.095Z,11.53
2017-07-30T22:54:44.159Z,4.83
2017-07-30T22:57:10.543Z,5.70
2017-07-30T22:59:36.922Z,6.07
2017-07-30T23:02:03.391Z,7.50
2017-07-30T23:04:29.887Z,9.83
2017-07-30T23:06:56.275Z,11.20
2017-07-30T23:09:22.971Z,7.00
2017-07-30T23:11:49.375Z,7.10
2017-07-30T23:14:15.735Z,5.73
2017-07-30T23:16:42.162Z,5.47
2017-07-30T23:19:08.546Z,8.80
2017-07-30T23:21:34.945Z,5.00
2017-07-30T23:24:02.067Z,7.00
2017-07-30T23:26:28.545Z,6.90
2017-07-30T23:28:54.900Z,11.90
2017-07-30T23:31:21.727Z,5.37
2017-07-30T23:33:48.127Z,7.00
2017-07-30T23:36:15.201Z,5.47
2017-07-30T23:38:41.675Z,15.43
2017-07-30T23:41:08.172Z,10.60
2017-07-30T23:43:34.573Z,6.70
2017-07-30T23:46:00.934Z,8.00
2017-07-30T23:48:27.756Z,8.27
2017-07-30T23:50:54.187Z,13.00
2017-07-30T23:53:20.559Z,7.90
2017-07-30T23:55:46.921Z,9.90
2017-07-30T23:58:14.006Z,7.83
